<?xml version="1.1" encoding="UTF-8" ?>
<gpx version="1.1" creator="CartoExploreur 3D 1.07" xmlns:xsi="http://www.w3.org/2001/XMLSchema-instance" xmlns="http://www.topografix.com/GPX/1/1" xsi:schemaLocation="http://www.topografix.com/GPX/1/1 http://www.topografix.com/GPX/1/1/gpx.xsd">
    <metadata>
        <time>2017-12-16T09:30:34Z</time>
        <bounds maxlat="43.341045000" maxlon="5.093405000" minlat="43.328480000" minlon="5.071930000" />
    </metadata>
    <trk>
        <name>BL-Martigues-La boucle de Boumandariel-2017-12-06 ...</name>
        <trkseg>
            <trkpt lat="43.329343000" lon="5.082928000">
                <ele>5.000000</ele>
                <time>2017-12-06T14:32:25Z</time>
            </trkpt>
            <trkpt lat="43.329271000" lon="5.083024000">
                <ele>5.000000</ele>
                <time>2017-12-06T14:32:37Z</time>
            </trkpt>
            <trkpt lat="43.329202000" lon="5.083105000">
                <ele>4.000000</ele>
                <time>2017-12-06T14:32:47Z</time>
            </trkpt>
            <trkpt lat="43.329107000" lon="5.083160000">
                <ele>3.000000</ele>
                <time>2017-12-06T14:32:56Z</time>
            </trkpt>
            <trkpt lat="43.329019000" lon="5.083183000">
                <ele>3.000000</ele>
                <time>2017-12-06T14:33:06Z</time>
            </trkpt>
            <trkpt lat="43.328947000" lon="5.083101000">
                <ele>3.000000</ele>
                <time>2017-12-06T14:33:16Z</time>
            </trkpt>
            <trkpt lat="43.328882000" lon="5.083019000">
                <ele>3.000000</ele>
                <time>2017-12-06T14:33:28Z</time>
            </trkpt>
            <trkpt lat="43.328804000" lon="5.082930000">
                <ele>4.000000</ele>
                <time>2017-12-06T14:33:37Z</time>
            </trkpt>
            <trkpt lat="43.328762000" lon="5.082798000">
                <ele>4.000000</ele>
                <time>2017-12-06T14:33:46Z</time>
            </trkpt>
            <trkpt lat="43.328743000" lon="5.082651000">
                <ele>5.000000</ele>
                <time>2017-12-06T14:34:02Z</time>
            </trkpt>
            <trkpt lat="43.328747000" lon="5.082520000">
                <ele>5.000000</ele>
                <time>2017-12-06T14:34:20Z</time>
            </trkpt>
            <trkpt lat="43.328672000" lon="5.082359000">
                <ele>6.000000</ele>
                <time>2017-12-06T14:34:42Z</time>
            </trkpt>
            <trkpt lat="43.328603000" lon="5.082193000">
                <ele>7.000000</ele>
                <time>2017-12-06T14:34:59Z</time>
            </trkpt>
            <trkpt lat="43.328593000" lon="5.082040000">
                <ele>8.000000</ele>
                <time>2017-12-06T14:35:12Z</time>
            </trkpt>
            <trkpt lat="43.328571000" lon="5.081933000">
                <ele>9.000000</ele>
                <time>2017-12-06T14:35:34Z</time>
            </trkpt>
            <trkpt lat="43.328556000" lon="5.081814000">
                <ele>9.000000</ele>
                <time>2017-12-06T14:35:44Z</time>
            </trkpt>
            <trkpt lat="43.328508000" lon="5.081713000">
                <ele>10.000000</ele>
                <time>2017-12-06T14:35:53Z</time>
            </trkpt>
            <trkpt lat="43.328540000" lon="5.081583000">
                <ele>10.000000</ele>
                <time>2017-12-06T14:36:20Z</time>
            </trkpt>
            <trkpt lat="43.328480000" lon="5.081482000">
                <ele>10.000000</ele>
                <time>2017-12-06T14:36:29Z</time>
            </trkpt>
            <trkpt lat="43.328491000" lon="5.081351000">
                <ele>10.000000</ele>
                <time>2017-12-06T14:37:13Z</time>
            </trkpt>
            <trkpt lat="43.328504000" lon="5.081216000">
                <ele>10.000000</ele>
                <time>2017-12-06T14:37:22Z</time>
            </trkpt>
            <trkpt lat="43.328515000" lon="5.081081000">
                <ele>10.000000</ele>
                <time>2017-12-06T14:37:32Z</time>
            </trkpt>
            <trkpt lat="43.328556000" lon="5.080969000">
                <ele>10.000000</ele>
                <time>2017-12-06T14:37:43Z</time>
            </trkpt>
            <trkpt lat="43.328659000" lon="5.080955000">
                <ele>11.000000</ele>
                <time>2017-12-06T14:37:53Z</time>
            </trkpt>
            <trkpt lat="43.328728000" lon="5.080854000">
                <ele>11.000000</ele>
                <time>2017-12-06T14:38:03Z</time>
            </trkpt>
            <trkpt lat="43.328814000" lon="5.080745000">
                <ele>10.000000</ele>
                <time>2017-12-06T14:38:45Z</time>
            </trkpt>
            <trkpt lat="43.328879000" lon="5.080636000">
                <ele>9.000000</ele>
                <time>2017-12-06T14:39:12Z</time>
            </trkpt>
            <trkpt lat="43.328953000" lon="5.080508000">
                <ele>7.000000</ele>
                <time>2017-12-06T14:39:34Z</time>
            </trkpt>
            <trkpt lat="43.329054000" lon="5.080380000">
                <ele>6.000000</ele>
                <time>2017-12-06T14:40:22Z</time>
            </trkpt>
            <trkpt lat="43.329105000" lon="5.080268000">
                <ele>4.000000</ele>
                <time>2017-12-06T14:40:33Z</time>
            </trkpt>
            <trkpt lat="43.329166000" lon="5.080159000">
                <ele>2.000000</ele>
                <time>2017-12-06T14:40:43Z</time>
            </trkpt>
            <trkpt lat="43.329212000" lon="5.080037000">
                <ele>1.000000</ele>
                <time>2017-12-06T14:40:53Z</time>
            </trkpt>
            <trkpt lat="43.329297000" lon="5.079946000">
                <ele>1.000000</ele>
                <time>2017-12-06T14:41:03Z</time>
            </trkpt>
            <trkpt lat="43.329396000" lon="5.079920000">
                <ele>1.000000</ele>
                <time>2017-12-06T14:41:13Z</time>
            </trkpt>
            <trkpt lat="43.329509000" lon="5.079952000">
                <ele>2.000000</ele>
                <time>2017-12-06T14:41:24Z</time>
            </trkpt>
            <trkpt lat="43.329616000" lon="5.079919000">
                <ele>2.000000</ele>
                <time>2017-12-06T14:41:36Z</time>
            </trkpt>
            <trkpt lat="43.329711000" lon="5.079936000">
                <ele>3.000000</ele>
                <time>2017-12-06T14:41:49Z</time>
            </trkpt>
            <trkpt lat="43.329796000" lon="5.080016000">
                <ele>4.000000</ele>
                <time>2017-12-06T14:42:04Z</time>
            </trkpt>
            <trkpt lat="43.329874000" lon="5.080140000">
                <ele>5.000000</ele>
                <time>2017-12-06T14:42:22Z</time>
            </trkpt>
            <trkpt lat="43.329953000" lon="5.080261000">
                <ele>6.000000</ele>
                <time>2017-12-06T14:42:33Z</time>
            </trkpt>
            <trkpt lat="43.330068000" lon="5.080196000">
                <ele>6.000000</ele>
                <time>2017-12-06T14:42:42Z</time>
            </trkpt>
            <trkpt lat="43.330152000" lon="5.080131000">
                <ele>6.000000</ele>
                <time>2017-12-06T14:42:49Z</time>
            </trkpt>
            <trkpt lat="43.330206000" lon="5.080077000">
                <ele>5.000000</ele>
                <time>2017-12-06T14:42:58Z</time>
            </trkpt>
            <trkpt lat="43.330262000" lon="5.079980000">
                <ele>5.000000</ele>
                <time>2017-12-06T14:43:06Z</time>
            </trkpt>
            <trkpt lat="43.330313000" lon="5.079855000">
                <ele>4.000000</ele>
                <time>2017-12-06T14:43:13Z</time>
            </trkpt>
            <trkpt lat="43.330348000" lon="5.079724000">
                <ele>4.000000</ele>
                <time>2017-12-06T14:43:20Z</time>
            </trkpt>
            <trkpt lat="43.330371000" lon="5.079570000">
                <ele>3.000000</ele>
                <time>2017-12-06T14:43:28Z</time>
            </trkpt>
            <trkpt lat="43.330391000" lon="5.079454000">
                <ele>3.000000</ele>
                <time>2017-12-06T14:43:45Z</time>
            </trkpt>
            <trkpt lat="43.330400000" lon="5.079306000">
                <ele>2.000000</ele>
                <time>2017-12-06T14:43:52Z</time>
            </trkpt>
            <trkpt lat="43.330404000" lon="5.079173000">
                <ele>2.000000</ele>
                <time>2017-12-06T14:43:59Z</time>
            </trkpt>
            <trkpt lat="43.330398000" lon="5.079043000">
                <ele>3.000000</ele>
                <time>2017-12-06T14:44:05Z</time>
            </trkpt>
            <trkpt lat="43.330378000" lon="5.078916000">
                <ele>3.000000</ele>
                <time>2017-12-06T14:44:12Z</time>
            </trkpt>
            <trkpt lat="43.330331000" lon="5.078794000">
                <ele>4.000000</ele>
                <time>2017-12-06T14:44:22Z</time>
            </trkpt>
            <trkpt lat="43.330259000" lon="5.078706000">
                <ele>4.000000</ele>
                <time>2017-12-06T14:44:31Z</time>
            </trkpt>
            <trkpt lat="43.330205000" lon="5.078601000">
                <ele>4.000000</ele>
                <time>2017-12-06T14:44:39Z</time>
            </trkpt>
            <trkpt lat="43.330142000" lon="5.078491000">
                <ele>5.000000</ele>
                <time>2017-12-06T14:44:48Z</time>
            </trkpt>
            <trkpt lat="43.330068000" lon="5.078402000">
                <ele>5.000000</ele>
                <time>2017-12-06T14:44:57Z</time>
            </trkpt>
            <trkpt lat="43.330001000" lon="5.078294000">
                <ele>5.000000</ele>
                <time>2017-12-06T14:45:11Z</time>
            </trkpt>
            <trkpt lat="43.329928000" lon="5.078207000">
                <ele>6.000000</ele>
                <time>2017-12-06T14:45:19Z</time>
            </trkpt>
            <trkpt lat="43.329835000" lon="5.078177000">
                <ele>6.000000</ele>
                <time>2017-12-06T14:45:27Z</time>
            </trkpt>
            <trkpt lat="43.329738000" lon="5.078180000">
                <ele>6.000000</ele>
                <time>2017-12-06T14:45:39Z</time>
            </trkpt>
            <trkpt lat="43.329659000" lon="5.078249000">
                <ele>5.000000</ele>
                <time>2017-12-06T14:45:47Z</time>
            </trkpt>
            <trkpt lat="43.329565000" lon="5.078328000">
                <ele>5.000000</ele>
                <time>2017-12-06T14:45:55Z</time>
            </trkpt>
            <trkpt lat="43.329473000" lon="5.078400000">
                <ele>4.000000</ele>
                <time>2017-12-06T14:46:03Z</time>
            </trkpt>
            <trkpt lat="43.329369000" lon="5.078417000">
                <ele>4.000000</ele>
                <time>2017-12-06T14:46:12Z</time>
            </trkpt>
            <trkpt lat="43.329285000" lon="5.078350000">
                <ele>4.000000</ele>
                <time>2017-12-06T14:46:21Z</time>
            </trkpt>
            <trkpt lat="43.329237000" lon="5.078227000">
                <ele>5.000000</ele>
                <time>2017-12-06T14:46:32Z</time>
            </trkpt>
            <trkpt lat="43.329168000" lon="5.078129000">
                <ele>6.000000</ele>
                <time>2017-12-06T14:46:43Z</time>
            </trkpt>
            <trkpt lat="43.329105000" lon="5.078023000">
                <ele>7.000000</ele>
                <time>2017-12-06T14:46:54Z</time>
            </trkpt>
            <trkpt lat="43.329043000" lon="5.077917000">
                <ele>7.000000</ele>
                <time>2017-12-06T14:47:04Z</time>
            </trkpt>
            <trkpt lat="43.328959000" lon="5.077830000">
                <ele>8.000000</ele>
                <time>2017-12-06T14:47:15Z</time>
            </trkpt>
            <trkpt lat="43.328868000" lon="5.077655000">
                <ele>8.000000</ele>
                <time>2017-12-06T14:47:37Z</time>
            </trkpt>
            <trkpt lat="43.328798000" lon="5.077512000">
                <ele>9.000000</ele>
                <time>2017-12-06T14:47:54Z</time>
            </trkpt>
            <trkpt lat="43.328734000" lon="5.077411000">
                <ele>8.000000</ele>
                <time>2017-12-06T14:48:10Z</time>
            </trkpt>
            <trkpt lat="43.328761000" lon="5.077210000">
                <ele>9.000000</ele>
                <time>2017-12-06T14:48:38Z</time>
            </trkpt>
            <trkpt lat="43.328842000" lon="5.077057000">
                <ele>10.000000</ele>
                <time>2017-12-06T14:48:59Z</time>
            </trkpt>
            <trkpt lat="43.328900000" lon="5.076923000">
                <ele>11.000000</ele>
                <time>2017-12-06T14:49:13Z</time>
            </trkpt>
            <trkpt lat="43.328891000" lon="5.076769000">
                <ele>11.000000</ele>
                <time>2017-12-06T14:49:25Z</time>
            </trkpt>
            <trkpt lat="43.328926000" lon="5.076624000">
                <ele>12.000000</ele>
                <time>2017-12-06T14:49:37Z</time>
            </trkpt>
            <trkpt lat="43.328967000" lon="5.076490000">
                <ele>12.000000</ele>
                <time>2017-12-06T14:49:45Z</time>
            </trkpt>
            <trkpt lat="43.328969000" lon="5.076340000">
                <ele>12.000000</ele>
                <time>2017-12-06T14:49:53Z</time>
            </trkpt>
            <trkpt lat="43.328930000" lon="5.076195000">
                <ele>12.000000</ele>
                <time>2017-12-06T14:50:00Z</time>
            </trkpt>
            <trkpt lat="43.328885000" lon="5.076109000">
                <ele>11.000000</ele>
                <time>2017-12-06T14:50:07Z</time>
            </trkpt>
            <trkpt lat="43.328877000" lon="5.075981000">
                <ele>11.000000</ele>
                <time>2017-12-06T14:50:16Z</time>
            </trkpt>
            <trkpt lat="43.328863000" lon="5.075855000">
                <ele>11.000000</ele>
                <time>2017-12-06T14:50:25Z</time>
            </trkpt>
            <trkpt lat="43.328838000" lon="5.075751000">
                <ele>11.000000</ele>
                <time>2017-12-06T14:50:56Z</time>
            </trkpt>
            <trkpt lat="43.328844000" lon="5.075617000">
                <ele>11.000000</ele>
                <time>2017-12-06T14:51:03Z</time>
            </trkpt>
            <trkpt lat="43.328847000" lon="5.075469000">
                <ele>12.000000</ele>
                <time>2017-12-06T14:51:12Z</time>
            </trkpt>
            <trkpt lat="43.328858000" lon="5.075326000">
                <ele>12.000000</ele>
                <time>2017-12-06T14:51:22Z</time>
            </trkpt>
            <trkpt lat="43.328867000" lon="5.075174000">
                <ele>13.000000</ele>
                <time>2017-12-06T14:51:31Z</time>
            </trkpt>
            <trkpt lat="43.328875000" lon="5.075028000">
                <ele>14.000000</ele>
                <time>2017-12-06T14:51:40Z</time>
            </trkpt>
            <trkpt lat="43.328881000" lon="5.074868000">
                <ele>14.000000</ele>
                <time>2017-12-06T14:51:49Z</time>
            </trkpt>
            <trkpt lat="43.328873000" lon="5.074709000">
                <ele>14.000000</ele>
                <time>2017-12-06T14:51:59Z</time>
            </trkpt>
            <trkpt lat="43.328857000" lon="5.074576000">
                <ele>13.000000</ele>
                <time>2017-12-06T14:52:06Z</time>
            </trkpt>
            <trkpt lat="43.328869000" lon="5.074426000">
                <ele>14.000000</ele>
                <time>2017-12-06T14:52:15Z</time>
            </trkpt>
            <trkpt lat="43.328898000" lon="5.074294000">
                <ele>14.000000</ele>
                <time>2017-12-06T14:52:24Z</time>
            </trkpt>
            <trkpt lat="43.328926000" lon="5.074149000">
                <ele>15.000000</ele>
                <time>2017-12-06T14:52:33Z</time>
            </trkpt>
            <trkpt lat="43.328928000" lon="5.073992000">
                <ele>14.000000</ele>
                <time>2017-12-06T14:52:43Z</time>
            </trkpt>
            <trkpt lat="43.328934000" lon="5.073829000">
                <ele>14.000000</ele>
                <time>2017-12-06T14:52:53Z</time>
            </trkpt>
            <trkpt lat="43.328958000" lon="5.073691000">
                <ele>14.000000</ele>
                <time>2017-12-06T14:53:01Z</time>
            </trkpt>
            <trkpt lat="43.328961000" lon="5.073523000">
                <ele>14.000000</ele>
                <time>2017-12-06T14:53:09Z</time>
            </trkpt>
            <trkpt lat="43.328984000" lon="5.073368000">
                <ele>14.000000</ele>
                <time>2017-12-06T14:53:18Z</time>
            </trkpt>
            <trkpt lat="43.328999000" lon="5.073224000">
                <ele>14.000000</ele>
                <time>2017-12-06T14:53:26Z</time>
            </trkpt>
            <trkpt lat="43.329012000" lon="5.073070000">
                <ele>13.000000</ele>
                <time>2017-12-06T14:53:34Z</time>
            </trkpt>
            <trkpt lat="43.329040000" lon="5.072938000">
                <ele>13.000000</ele>
                <time>2017-12-06T14:53:42Z</time>
            </trkpt>
            <trkpt lat="43.329092000" lon="5.072814000">
                <ele>13.000000</ele>
                <time>2017-12-06T14:53:51Z</time>
            </trkpt>
            <trkpt lat="43.329156000" lon="5.072691000">
                <ele>14.000000</ele>
                <time>2017-12-06T14:54:00Z</time>
            </trkpt>
            <trkpt lat="43.329233000" lon="5.072566000">
                <ele>14.000000</ele>
                <time>2017-12-06T14:54:10Z</time>
            </trkpt>
            <trkpt lat="43.329272000" lon="5.072411000">
                <ele>13.000000</ele>
                <time>2017-12-06T14:54:19Z</time>
            </trkpt>
            <trkpt lat="43.329339000" lon="5.072252000">
                <ele>12.000000</ele>
                <time>2017-12-06T14:54:30Z</time>
            </trkpt>
            <trkpt lat="43.329445000" lon="5.072112000">
                <ele>12.000000</ele>
                <time>2017-12-06T14:54:40Z</time>
            </trkpt>
            <trkpt lat="43.329542000" lon="5.072053000">
                <ele>13.000000</ele>
                <time>2017-12-06T14:54:48Z</time>
            </trkpt>
            <trkpt lat="43.329636000" lon="5.072016000">
                <ele>14.000000</ele>
                <time>2017-12-06T14:54:57Z</time>
            </trkpt>
            <trkpt lat="43.329733000" lon="5.072000000">
                <ele>14.000000</ele>
                <time>2017-12-06T14:55:12Z</time>
            </trkpt>
            <trkpt lat="43.329821000" lon="5.072008000">
                <ele>15.000000</ele>
                <time>2017-12-06T14:55:21Z</time>
            </trkpt>
            <trkpt lat="43.329922000" lon="5.071987000">
                <ele>16.000000</ele>
                <time>2017-12-06T14:55:31Z</time>
            </trkpt>
            <trkpt lat="43.330024000" lon="5.071980000">
                <ele>17.000000</ele>
                <time>2017-12-06T14:55:40Z</time>
            </trkpt>
            <trkpt lat="43.330131000" lon="5.071957000">
                <ele>16.000000</ele>
                <time>2017-12-06T14:55:50Z</time>
            </trkpt>
            <trkpt lat="43.330233000" lon="5.071957000">
                <ele>16.000000</ele>
                <time>2017-12-06T14:56:00Z</time>
            </trkpt>
            <trkpt lat="43.330362000" lon="5.071930000">
                <ele>15.000000</ele>
                <time>2017-12-06T14:56:31Z</time>
            </trkpt>
            <trkpt lat="43.330475000" lon="5.071968000">
                <ele>14.000000</ele>
                <time>2017-12-06T14:57:01Z</time>
            </trkpt>
            <trkpt lat="43.330576000" lon="5.072008000">
                <ele>14.000000</ele>
                <time>2017-12-06T14:57:13Z</time>
            </trkpt>
            <trkpt lat="43.330660000" lon="5.072061000">
                <ele>15.000000</ele>
                <time>2017-12-06T14:57:37Z</time>
            </trkpt>
            <trkpt lat="43.330765000" lon="5.072085000">
                <ele>14.000000</ele>
                <time>2017-12-06T14:57:47Z</time>
            </trkpt>
            <trkpt lat="43.330861000" lon="5.072114000">
                <ele>14.000000</ele>
                <time>2017-12-06T14:57:58Z</time>
            </trkpt>
            <trkpt lat="43.330958000" lon="5.072082000">
                <ele>14.000000</ele>
                <time>2017-12-06T14:58:13Z</time>
            </trkpt>
            <trkpt lat="43.331048000" lon="5.072027000">
                <ele>13.000000</ele>
                <time>2017-12-06T14:58:25Z</time>
            </trkpt>
            <trkpt lat="43.331146000" lon="5.072010000">
                <ele>13.000000</ele>
                <time>2017-12-06T14:58:35Z</time>
            </trkpt>
            <trkpt lat="43.331249000" lon="5.072009000">
                <ele>13.000000</ele>
                <time>2017-12-06T14:58:45Z</time>
            </trkpt>
            <trkpt lat="43.331345000" lon="5.072005000">
                <ele>13.000000</ele>
                <time>2017-12-06T14:58:53Z</time>
            </trkpt>
            <trkpt lat="43.331454000" lon="5.072021000">
                <ele>13.000000</ele>
                <time>2017-12-06T14:59:02Z</time>
            </trkpt>
            <trkpt lat="43.331638000" lon="5.072075000">
                <ele>13.000000</ele>
                <time>2017-12-06T15:00:20Z</time>
            </trkpt>
            <trkpt lat="43.331715000" lon="5.072176000">
                <ele>14.000000</ele>
                <time>2017-12-06T15:00:38Z</time>
            </trkpt>
            <trkpt lat="43.331781000" lon="5.072269000">
                <ele>15.000000</ele>
                <time>2017-12-06T15:00:49Z</time>
            </trkpt>
            <trkpt lat="43.331849000" lon="5.072373000">
                <ele>16.000000</ele>
                <time>2017-12-06T15:00:59Z</time>
            </trkpt>
            <trkpt lat="43.331925000" lon="5.072458000">
                <ele>17.000000</ele>
                <time>2017-12-06T15:01:08Z</time>
            </trkpt>
            <trkpt lat="43.331989000" lon="5.072553000">
                <ele>17.000000</ele>
                <time>2017-12-06T15:01:16Z</time>
            </trkpt>
            <trkpt lat="43.332034000" lon="5.072677000">
                <ele>18.000000</ele>
                <time>2017-12-06T15:01:25Z</time>
            </trkpt>
            <trkpt lat="43.332070000" lon="5.072811000">
                <ele>18.000000</ele>
                <time>2017-12-06T15:01:35Z</time>
            </trkpt>
            <trkpt lat="43.332087000" lon="5.072949000">
                <ele>18.000000</ele>
                <time>2017-12-06T15:01:46Z</time>
            </trkpt>
            <trkpt lat="43.332094000" lon="5.073087000">
                <ele>19.000000</ele>
                <time>2017-12-06T15:01:56Z</time>
            </trkpt>
            <trkpt lat="43.332083000" lon="5.073258000">
                <ele>19.000000</ele>
                <time>2017-12-06T15:02:07Z</time>
            </trkpt>
            <trkpt lat="43.332093000" lon="5.073401000">
                <ele>19.000000</ele>
                <time>2017-12-06T15:02:18Z</time>
            </trkpt>
            <trkpt lat="43.332153000" lon="5.073508000">
                <ele>19.000000</ele>
                <time>2017-12-06T15:02:30Z</time>
            </trkpt>
            <trkpt lat="43.332208000" lon="5.073643000">
                <ele>19.000000</ele>
                <time>2017-12-06T15:03:30Z</time>
            </trkpt>
            <trkpt lat="43.332164000" lon="5.073708000">
                <ele>19.000000</ele>
                <time>2017-12-06T15:03:47Z</time>
            </trkpt>
            <trkpt lat="43.332191000" lon="5.073847000">
                <ele>20.000000</ele>
                <time>2017-12-06T15:03:57Z</time>
            </trkpt>
            <trkpt lat="43.332253000" lon="5.073967000">
                <ele>20.000000</ele>
                <time>2017-12-06T15:04:06Z</time>
            </trkpt>
            <trkpt lat="43.332317000" lon="5.074089000">
                <ele>20.000000</ele>
                <time>2017-12-06T15:04:15Z</time>
            </trkpt>
            <trkpt lat="43.332381000" lon="5.074216000">
                <ele>20.000000</ele>
                <time>2017-12-06T15:04:25Z</time>
            </trkpt>
            <trkpt lat="43.332447000" lon="5.074343000">
                <ele>20.000000</ele>
                <time>2017-12-06T15:04:35Z</time>
            </trkpt>
            <trkpt lat="43.332556000" lon="5.074415000">
                <ele>21.000000</ele>
                <time>2017-12-06T15:04:44Z</time>
            </trkpt>
            <trkpt lat="43.332635000" lon="5.074331000">
                <ele>21.000000</ele>
                <time>2017-12-06T15:04:52Z</time>
            </trkpt>
            <trkpt lat="43.332737000" lon="5.074369000">
                <ele>21.000000</ele>
                <time>2017-12-06T15:05:00Z</time>
            </trkpt>
            <trkpt lat="43.332829000" lon="5.074412000">
                <ele>21.000000</ele>
                <time>2017-12-06T15:05:12Z</time>
            </trkpt>
            <trkpt lat="43.332929000" lon="5.074389000">
                <ele>21.000000</ele>
                <time>2017-12-06T15:05:31Z</time>
            </trkpt>
            <trkpt lat="43.333035000" lon="5.074432000">
                <ele>21.000000</ele>
                <time>2017-12-06T15:05:44Z</time>
            </trkpt>
            <trkpt lat="43.333133000" lon="5.074461000">
                <ele>21.000000</ele>
                <time>2017-12-06T15:06:01Z</time>
            </trkpt>
            <trkpt lat="43.333244000" lon="5.074511000">
                <ele>22.000000</ele>
                <time>2017-12-06T15:06:10Z</time>
            </trkpt>
            <trkpt lat="43.333347000" lon="5.074562000">
                <ele>22.000000</ele>
                <time>2017-12-06T15:06:19Z</time>
            </trkpt>
            <trkpt lat="43.333455000" lon="5.074595000">
                <ele>22.000000</ele>
                <time>2017-12-06T15:06:28Z</time>
            </trkpt>
            <trkpt lat="43.333568000" lon="5.074590000">
                <ele>22.000000</ele>
                <time>2017-12-06T15:06:43Z</time>
            </trkpt>
            <trkpt lat="43.333658000" lon="5.074556000">
                <ele>23.000000</ele>
                <time>2017-12-06T15:06:59Z</time>
            </trkpt>
            <trkpt lat="43.333752000" lon="5.074606000">
                <ele>23.000000</ele>
                <time>2017-12-06T15:07:07Z</time>
            </trkpt>
            <trkpt lat="43.333848000" lon="5.074654000">
                <ele>23.000000</ele>
                <time>2017-12-06T15:07:15Z</time>
            </trkpt>
            <trkpt lat="43.333963000" lon="5.074677000">
                <ele>23.000000</ele>
                <time>2017-12-06T15:07:25Z</time>
            </trkpt>
            <trkpt lat="43.334069000" lon="5.074707000">
                <ele>24.000000</ele>
                <time>2017-12-06T15:07:37Z</time>
            </trkpt>
            <trkpt lat="43.334114000" lon="5.074857000">
                <ele>24.000000</ele>
                <time>2017-12-06T15:07:47Z</time>
            </trkpt>
            <trkpt lat="43.334185000" lon="5.074949000">
                <ele>25.000000</ele>
                <time>2017-12-06T15:07:56Z</time>
            </trkpt>
            <trkpt lat="43.334296000" lon="5.074951000">
                <ele>25.000000</ele>
                <time>2017-12-06T15:08:05Z</time>
            </trkpt>
            <trkpt lat="43.334394000" lon="5.074876000">
                <ele>25.000000</ele>
                <time>2017-12-06T15:08:15Z</time>
            </trkpt>
            <trkpt lat="43.334480000" lon="5.074944000">
                <ele>26.000000</ele>
                <time>2017-12-06T15:08:23Z</time>
            </trkpt>
            <trkpt lat="43.334592000" lon="5.074955000">
                <ele>26.000000</ele>
                <time>2017-12-06T15:08:32Z</time>
            </trkpt>
            <trkpt lat="43.334677000" lon="5.075013000">
                <ele>26.000000</ele>
                <time>2017-12-06T15:08:40Z</time>
            </trkpt>
            <trkpt lat="43.334746000" lon="5.075065000">
                <ele>26.000000</ele>
                <time>2017-12-06T15:08:50Z</time>
            </trkpt>
            <trkpt lat="43.334880000" lon="5.075084000">
                <ele>27.000000</ele>
            </trkpt>
            <trkpt lat="43.334997000" lon="5.075186000">
                <ele>27.000000</ele>
            </trkpt>
            <trkpt lat="43.335130000" lon="5.075224000">
                <ele>27.000000</ele>
            </trkpt>
            <trkpt lat="43.335298000" lon="5.075288000">
                <ele>28.000000</ele>
            </trkpt>
            <trkpt lat="43.335446000" lon="5.075438000">
                <ele>28.000000</ele>
            </trkpt>
            <trkpt lat="43.335618000" lon="5.075744000">
                <ele>27.000000</ele>
            </trkpt>
            <trkpt lat="43.335852000" lon="5.076012000">
                <ele>26.000000</ele>
            </trkpt>
            <trkpt lat="43.336129000" lon="5.076259000">
                <ele>26.000000</ele>
                <time>2017-12-06T15:11:41Z</time>
            </trkpt>
            <trkpt lat="43.336242000" lon="5.076302000">
                <ele>27.000000</ele>
                <time>2017-12-06T15:11:48Z</time>
            </trkpt>
            <trkpt lat="43.336289000" lon="5.076334000">
                <ele>27.000000</ele>
            </trkpt>
            <trkpt lat="43.336322000" lon="5.076386000">
                <ele>27.000000</ele>
                <time>2017-12-06T15:11:56Z</time>
            </trkpt>
            <trkpt lat="43.336405000" lon="5.076444000">
                <ele>27.000000</ele>
                <time>2017-12-06T15:12:04Z</time>
            </trkpt>
            <trkpt lat="43.336490000" lon="5.076499000">
                <ele>27.000000</ele>
                <time>2017-12-06T15:12:12Z</time>
            </trkpt>
            <trkpt lat="43.336578000" lon="5.076574000">
                <ele>27.000000</ele>
                <time>2017-12-06T15:12:20Z</time>
            </trkpt>
            <trkpt lat="43.336655000" lon="5.076658000">
                <ele>27.000000</ele>
                <time>2017-12-06T15:12:28Z</time>
            </trkpt>
            <trkpt lat="43.336728000" lon="5.076753000">
                <ele>27.000000</ele>
                <time>2017-12-06T15:12:48Z</time>
            </trkpt>
            <trkpt lat="43.336826000" lon="5.076818000">
                <ele>27.000000</ele>
                <time>2017-12-06T15:12:57Z</time>
            </trkpt>
            <trkpt lat="43.336921000" lon="5.076862000">
                <ele>27.000000</ele>
                <time>2017-12-06T15:13:09Z</time>
            </trkpt>
            <trkpt lat="43.337019000" lon="5.076895000">
                <ele>27.000000</ele>
                <time>2017-12-06T15:13:18Z</time>
            </trkpt>
            <trkpt lat="43.337113000" lon="5.076940000">
                <ele>27.000000</ele>
                <time>2017-12-06T15:13:27Z</time>
            </trkpt>
            <trkpt lat="43.337214000" lon="5.076970000">
                <ele>28.000000</ele>
                <time>2017-12-06T15:13:36Z</time>
            </trkpt>
            <trkpt lat="43.337308000" lon="5.077008000">
                <ele>28.000000</ele>
                <time>2017-12-06T15:13:44Z</time>
            </trkpt>
            <trkpt lat="43.337401000" lon="5.077071000">
                <ele>28.000000</ele>
                <time>2017-12-06T15:13:52Z</time>
            </trkpt>
            <trkpt lat="43.337475000" lon="5.077148000">
                <ele>28.000000</ele>
                <time>2017-12-06T15:14:00Z</time>
            </trkpt>
            <trkpt lat="43.337548000" lon="5.077265000">
                <ele>28.000000</ele>
                <time>2017-12-06T15:14:10Z</time>
            </trkpt>
            <trkpt lat="43.337632000" lon="5.077366000">
                <ele>28.000000</ele>
                <time>2017-12-06T15:14:20Z</time>
            </trkpt>
            <trkpt lat="43.337710000" lon="5.077466000">
                <ele>28.000000</ele>
                <time>2017-12-06T15:14:29Z</time>
            </trkpt>
            <trkpt lat="43.337782000" lon="5.077588000">
                <ele>29.000000</ele>
                <time>2017-12-06T15:14:38Z</time>
            </trkpt>
            <trkpt lat="43.337829000" lon="5.077711000">
                <ele>29.000000</ele>
                <time>2017-12-06T15:14:53Z</time>
            </trkpt>
            <trkpt lat="43.337882000" lon="5.077835000">
                <ele>29.000000</ele>
                <time>2017-12-06T15:15:02Z</time>
            </trkpt>
            <trkpt lat="43.337938000" lon="5.077952000">
                <ele>29.000000</ele>
                <time>2017-12-06T15:15:10Z</time>
            </trkpt>
            <trkpt lat="43.337993000" lon="5.078077000">
                <ele>29.000000</ele>
                <time>2017-12-06T15:15:20Z</time>
            </trkpt>
            <trkpt lat="43.338048000" lon="5.078189000">
                <ele>29.000000</ele>
                <time>2017-12-06T15:15:29Z</time>
            </trkpt>
            <trkpt lat="43.338112000" lon="5.078284000">
                <ele>30.000000</ele>
                <time>2017-12-06T15:15:38Z</time>
            </trkpt>
            <trkpt lat="43.338168000" lon="5.078428000">
                <ele>30.000000</ele>
                <time>2017-12-06T15:15:47Z</time>
            </trkpt>
            <trkpt lat="43.338218000" lon="5.078564000">
                <ele>31.000000</ele>
                <time>2017-12-06T15:16:00Z</time>
            </trkpt>
            <trkpt lat="43.338291000" lon="5.078684000">
                <ele>31.000000</ele>
                <time>2017-12-06T15:16:11Z</time>
            </trkpt>
            <trkpt lat="43.338331000" lon="5.078821000">
                <ele>32.000000</ele>
                <time>2017-12-06T15:16:20Z</time>
            </trkpt>
            <trkpt lat="43.338358000" lon="5.078955000">
                <ele>32.000000</ele>
                <time>2017-12-06T15:16:29Z</time>
            </trkpt>
            <trkpt lat="43.338377000" lon="5.079104000">
                <ele>32.000000</ele>
                <time>2017-12-06T15:16:40Z</time>
            </trkpt>
            <trkpt lat="43.338399000" lon="5.079250000">
                <ele>32.000000</ele>
                <time>2017-12-06T15:16:52Z</time>
            </trkpt>
            <trkpt lat="43.338425000" lon="5.079386000">
                <ele>33.000000</ele>
                <time>2017-12-06T15:17:03Z</time>
            </trkpt>
            <trkpt lat="43.338439000" lon="5.079533000">
                <ele>34.000000</ele>
                <time>2017-12-06T15:17:14Z</time>
            </trkpt>
            <trkpt lat="43.338457000" lon="5.079663000">
                <ele>34.000000</ele>
                <time>2017-12-06T15:17:24Z</time>
            </trkpt>
            <trkpt lat="43.338487000" lon="5.079797000">
                <ele>35.000000</ele>
                <time>2017-12-06T15:17:35Z</time>
            </trkpt>
            <trkpt lat="43.338582000" lon="5.079814000">
                <ele>35.000000</ele>
                <time>2017-12-06T15:17:46Z</time>
            </trkpt>
            <trkpt lat="43.338672000" lon="5.079853000">
                <ele>34.000000</ele>
                <time>2017-12-06T15:17:56Z</time>
            </trkpt>
            <trkpt lat="43.338718000" lon="5.079986000">
                <ele>35.000000</ele>
                <time>2017-12-06T15:18:07Z</time>
            </trkpt>
            <trkpt lat="43.338759000" lon="5.080141000">
                <ele>36.000000</ele>
                <time>2017-12-06T15:18:18Z</time>
            </trkpt>
            <trkpt lat="43.338799000" lon="5.080283000">
                <ele>36.000000</ele>
                <time>2017-12-06T15:18:28Z</time>
            </trkpt>
            <trkpt lat="43.338826000" lon="5.080441000">
                <ele>37.000000</ele>
                <time>2017-12-06T15:18:39Z</time>
            </trkpt>
            <trkpt lat="43.338876000" lon="5.080604000">
                <ele>38.000000</ele>
                <time>2017-12-06T15:18:49Z</time>
            </trkpt>
            <trkpt lat="43.338890000" lon="5.080758000">
                <ele>39.000000</ele>
                <time>2017-12-06T15:18:59Z</time>
            </trkpt>
            <trkpt lat="43.338923000" lon="5.080892000">
                <ele>39.000000</ele>
                <time>2017-12-06T15:19:13Z</time>
            </trkpt>
            <trkpt lat="43.338950000" lon="5.081087000">
                <ele>40.000000</ele>
                <time>2017-12-06T15:19:22Z</time>
            </trkpt>
            <trkpt lat="43.338988000" lon="5.081284000">
                <ele>40.000000</ele>
                <time>2017-12-06T15:19:33Z</time>
            </trkpt>
            <trkpt lat="43.339020000" lon="5.081447000">
                <ele>40.000000</ele>
                <time>2017-12-06T15:19:43Z</time>
            </trkpt>
            <trkpt lat="43.339077000" lon="5.081556000">
                <ele>41.000000</ele>
                <time>2017-12-06T15:19:51Z</time>
            </trkpt>
            <trkpt lat="43.339153000" lon="5.081672000">
                <ele>41.000000</ele>
                <time>2017-12-06T15:20:01Z</time>
            </trkpt>
            <trkpt lat="43.339235000" lon="5.081794000">
                <ele>41.000000</ele>
                <time>2017-12-06T15:20:10Z</time>
            </trkpt>
            <trkpt lat="43.339276000" lon="5.081936000">
                <ele>41.000000</ele>
                <time>2017-12-06T15:20:19Z</time>
            </trkpt>
            <trkpt lat="43.339295000" lon="5.082076000">
                <ele>41.000000</ele>
                <time>2017-12-06T15:20:29Z</time>
            </trkpt>
            <trkpt lat="43.339341000" lon="5.082199000">
                <ele>40.000000</ele>
                <time>2017-12-06T15:20:38Z</time>
            </trkpt>
            <trkpt lat="43.339351000" lon="5.082361000">
                <ele>40.000000</ele>
                <time>2017-12-06T15:20:48Z</time>
            </trkpt>
            <trkpt lat="43.339363000" lon="5.082508000">
                <ele>40.000000</ele>
                <time>2017-12-06T15:20:58Z</time>
            </trkpt>
            <trkpt lat="43.339396000" lon="5.082656000">
                <ele>41.000000</ele>
                <time>2017-12-06T15:21:07Z</time>
            </trkpt>
            <trkpt lat="43.339420000" lon="5.082792000">
                <ele>41.000000</ele>
                <time>2017-12-06T15:21:16Z</time>
            </trkpt>
            <trkpt lat="43.339411000" lon="5.082941000">
                <ele>41.000000</ele>
                <time>2017-12-06T15:21:26Z</time>
            </trkpt>
            <trkpt lat="43.339352000" lon="5.083074000">
                <ele>41.000000</ele>
                <time>2017-12-06T15:21:37Z</time>
            </trkpt>
            <trkpt lat="43.339370000" lon="5.083211000">
                <ele>41.000000</ele>
                <time>2017-12-06T15:21:48Z</time>
            </trkpt>
            <trkpt lat="43.339444000" lon="5.083309000">
                <ele>42.000000</ele>
                <time>2017-12-06T15:21:58Z</time>
            </trkpt>
            <trkpt lat="43.339445000" lon="5.083471000">
                <ele>42.000000</ele>
                <time>2017-12-06T15:22:29Z</time>
            </trkpt>
            <trkpt lat="43.339503000" lon="5.083587000">
                <ele>42.000000</ele>
                <time>2017-12-06T15:22:41Z</time>
            </trkpt>
            <trkpt lat="43.339490000" lon="5.083733000">
                <ele>43.000000</ele>
                <time>2017-12-06T15:22:53Z</time>
            </trkpt>
            <trkpt lat="43.339578000" lon="5.083765000">
                <ele>43.000000</ele>
                <time>2017-12-06T15:23:03Z</time>
            </trkpt>
            <trkpt lat="43.339701000" lon="5.083715000">
                <ele>43.000000</ele>
                <time>2017-12-06T15:23:15Z</time>
            </trkpt>
            <trkpt lat="43.339809000" lon="5.083626000">
                <ele>43.000000</ele>
                <time>2017-12-06T15:23:25Z</time>
            </trkpt>
            <trkpt lat="43.339906000" lon="5.083604000">
                <ele>43.000000</ele>
                <time>2017-12-06T15:23:51Z</time>
            </trkpt>
            <trkpt lat="43.339903000" lon="5.083758000">
                <ele>43.000000</ele>
                <time>2017-12-06T15:25:40Z</time>
            </trkpt>
            <trkpt lat="43.339902000" lon="5.083925000">
                <ele>44.000000</ele>
                <time>2017-12-06T15:25:55Z</time>
            </trkpt>
            <trkpt lat="43.339838000" lon="5.083965000">
                <ele>44.000000</ele>
                <time>2017-12-06T15:26:32Z</time>
            </trkpt>
            <trkpt lat="43.339723000" lon="5.084001000">
                <ele>43.000000</ele>
                <time>2017-12-06T15:26:59Z</time>
            </trkpt>
            <trkpt lat="43.339694000" lon="5.084137000">
                <ele>44.000000</ele>
                <time>2017-12-06T15:27:43Z</time>
            </trkpt>
            <trkpt lat="43.339721000" lon="5.084276000">
                <ele>44.000000</ele>
                <time>2017-12-06T15:27:52Z</time>
            </trkpt>
            <trkpt lat="43.339747000" lon="5.084422000">
                <ele>44.000000</ele>
                <time>2017-12-06T15:28:01Z</time>
            </trkpt>
            <trkpt lat="43.339779000" lon="5.084597000">
                <ele>44.000000</ele>
                <time>2017-12-06T15:28:11Z</time>
            </trkpt>
            <trkpt lat="43.339837000" lon="5.084721000">
                <ele>44.000000</ele>
                <time>2017-12-06T15:28:22Z</time>
            </trkpt>
            <trkpt lat="43.339896000" lon="5.084851000">
                <ele>44.000000</ele>
                <time>2017-12-06T15:28:33Z</time>
            </trkpt>
            <trkpt lat="43.339962000" lon="5.084975000">
                <ele>44.000000</ele>
                <time>2017-12-06T15:28:45Z</time>
            </trkpt>
            <trkpt lat="43.340001000" lon="5.085128000">
                <ele>44.000000</ele>
                <time>2017-12-06T15:28:55Z</time>
            </trkpt>
            <trkpt lat="43.340001000" lon="5.085288000">
                <ele>44.000000</ele>
                <time>2017-12-06T15:29:06Z</time>
            </trkpt>
            <trkpt lat="43.340001000" lon="5.085425000">
                <ele>44.000000</ele>
                <time>2017-12-06T15:29:21Z</time>
            </trkpt>
            <trkpt lat="43.340025000" lon="5.085576000">
                <ele>44.000000</ele>
                <time>2017-12-06T15:29:30Z</time>
            </trkpt>
            <trkpt lat="43.340036000" lon="5.085716000">
                <ele>45.000000</ele>
                <time>2017-12-06T15:29:39Z</time>
            </trkpt>
            <trkpt lat="43.340057000" lon="5.085856000">
                <ele>45.000000</ele>
                <time>2017-12-06T15:29:48Z</time>
            </trkpt>
            <trkpt lat="43.340085000" lon="5.086004000">
                <ele>44.000000</ele>
                <time>2017-12-06T15:29:58Z</time>
            </trkpt>
            <trkpt lat="43.340098000" lon="5.086149000">
                <ele>44.000000</ele>
                <time>2017-12-06T15:30:07Z</time>
            </trkpt>
            <trkpt lat="43.340133000" lon="5.086304000">
                <ele>44.000000</ele>
                <time>2017-12-06T15:30:16Z</time>
            </trkpt>
            <trkpt lat="43.340165000" lon="5.086452000">
                <ele>44.000000</ele>
                <time>2017-12-06T15:30:25Z</time>
            </trkpt>
            <trkpt lat="43.340192000" lon="5.086609000">
                <ele>44.000000</ele>
                <time>2017-12-06T15:30:35Z</time>
            </trkpt>
            <trkpt lat="43.340234000" lon="5.086776000">
                <ele>44.000000</ele>
                <time>2017-12-06T15:30:45Z</time>
            </trkpt>
            <trkpt lat="43.340315000" lon="5.086897000">
                <ele>44.000000</ele>
                <time>2017-12-06T15:30:54Z</time>
            </trkpt>
            <trkpt lat="43.340374000" lon="5.087004000">
                <ele>45.000000</ele>
                <time>2017-12-06T15:31:04Z</time>
            </trkpt>
            <trkpt lat="43.340432000" lon="5.087140000">
                <ele>46.000000</ele>
                <time>2017-12-06T15:31:15Z</time>
            </trkpt>
            <trkpt lat="43.340485000" lon="5.087284000">
                <ele>46.000000</ele>
                <time>2017-12-06T15:31:25Z</time>
            </trkpt>
            <trkpt lat="43.340563000" lon="5.087429000">
                <ele>47.000000</ele>
                <time>2017-12-06T15:31:34Z</time>
            </trkpt>
            <trkpt lat="43.340633000" lon="5.087563000">
                <ele>47.000000</ele>
                <time>2017-12-06T15:31:45Z</time>
            </trkpt>
            <trkpt lat="43.340705000" lon="5.087689000">
                <ele>47.000000</ele>
                <time>2017-12-06T15:31:58Z</time>
            </trkpt>
            <trkpt lat="43.340773000" lon="5.087817000">
                <ele>47.000000</ele>
                <time>2017-12-06T15:32:08Z</time>
            </trkpt>
            <trkpt lat="43.340822000" lon="5.087962000">
                <ele>47.000000</ele>
                <time>2017-12-06T15:32:18Z</time>
            </trkpt>
            <trkpt lat="43.340874000" lon="5.088095000">
                <ele>46.000000</ele>
                <time>2017-12-06T15:32:28Z</time>
            </trkpt>
            <trkpt lat="43.340904000" lon="5.088252000">
                <ele>46.000000</ele>
                <time>2017-12-06T15:32:45Z</time>
            </trkpt>
            <trkpt lat="43.340931000" lon="5.088395000">
                <ele>45.000000</ele>
                <time>2017-12-06T15:32:54Z</time>
            </trkpt>
            <trkpt lat="43.340967000" lon="5.088545000">
                <ele>45.000000</ele>
                <time>2017-12-06T15:33:04Z</time>
            </trkpt>
            <trkpt lat="43.341005000" lon="5.088686000">
                <ele>44.000000</ele>
                <time>2017-12-06T15:33:13Z</time>
            </trkpt>
            <trkpt lat="43.341032000" lon="5.088830000">
                <ele>44.000000</ele>
                <time>2017-12-06T15:33:23Z</time>
            </trkpt>
            <trkpt lat="43.341045000" lon="5.088984000">
                <ele>44.000000</ele>
                <time>2017-12-06T15:33:32Z</time>
            </trkpt>
            <trkpt lat="43.341040000" lon="5.089146000">
                <ele>44.000000</ele>
                <time>2017-12-06T15:33:42Z</time>
            </trkpt>
            <trkpt lat="43.341037000" lon="5.089311000">
                <ele>43.000000</ele>
                <time>2017-12-06T15:33:53Z</time>
            </trkpt>
            <trkpt lat="43.341042000" lon="5.089459000">
                <ele>41.000000</ele>
                <time>2017-12-06T15:34:04Z</time>
            </trkpt>
            <trkpt lat="43.341038000" lon="5.089610000">
                <ele>40.000000</ele>
                <time>2017-12-06T15:34:26Z</time>
            </trkpt>
            <trkpt lat="43.341036000" lon="5.089753000">
                <ele>38.000000</ele>
                <time>2017-12-06T15:34:38Z</time>
            </trkpt>
            <trkpt lat="43.341045000" lon="5.089907000">
                <ele>36.000000</ele>
                <time>2017-12-06T15:35:05Z</time>
            </trkpt>
            <trkpt lat="43.341029000" lon="5.090047000">
                <ele>35.000000</ele>
                <time>2017-12-06T15:35:19Z</time>
            </trkpt>
            <trkpt lat="43.341033000" lon="5.090202000">
                <ele>33.000000</ele>
                <time>2017-12-06T15:35:34Z</time>
            </trkpt>
            <trkpt lat="43.341025000" lon="5.090357000">
                <ele>32.000000</ele>
                <time>2017-12-06T15:35:52Z</time>
            </trkpt>
            <trkpt lat="43.341005000" lon="5.090519000">
                <ele>30.000000</ele>
                <time>2017-12-06T15:36:06Z</time>
            </trkpt>
            <trkpt lat="43.340990000" lon="5.090683000">
                <ele>28.000000</ele>
                <time>2017-12-06T15:36:21Z</time>
            </trkpt>
            <trkpt lat="43.340943000" lon="5.090830000">
                <ele>27.000000</ele>
                <time>2017-12-06T15:36:40Z</time>
            </trkpt>
            <trkpt lat="43.340896000" lon="5.091011000">
                <ele>25.000000</ele>
                <time>2017-12-06T15:37:03Z</time>
            </trkpt>
            <trkpt lat="43.340853000" lon="5.091189000">
                <ele>23.000000</ele>
                <time>2017-12-06T15:37:22Z</time>
            </trkpt>
            <trkpt lat="43.340792000" lon="5.091385000">
                <ele>20.000000</ele>
                <time>2017-12-06T15:37:46Z</time>
            </trkpt>
            <trkpt lat="43.340784000" lon="5.091585000">
                <ele>17.000000</ele>
                <time>2017-12-06T15:38:05Z</time>
            </trkpt>
            <trkpt lat="43.340754000" lon="5.091777000">
                <ele>16.000000</ele>
                <time>2017-12-06T15:38:21Z</time>
            </trkpt>
            <trkpt lat="43.340754000" lon="5.091912000">
                <ele>16.000000</ele>
                <time>2017-12-06T15:38:32Z</time>
            </trkpt>
            <trkpt lat="43.340805000" lon="5.092044000">
                <ele>16.000000</ele>
                <time>2017-12-06T15:38:45Z</time>
            </trkpt>
            <trkpt lat="43.340791000" lon="5.092143000">
                <ele>16.000000</ele>
                <time>2017-12-06T15:39:13Z</time>
            </trkpt>
            <trkpt lat="43.340721000" lon="5.092191000">
                <ele>16.000000</ele>
                <time>2017-12-06T15:39:25Z</time>
            </trkpt>
            <trkpt lat="43.340421000" lon="5.092100000">
                <ele>14.000000</ele>
                <time>2017-12-06T15:41:24Z</time>
            </trkpt>
            <trkpt lat="43.340226000" lon="5.092063000">
                <ele>12.000000</ele>
                <time>2017-12-06T15:41:42Z</time>
            </trkpt>
            <trkpt lat="43.340105000" lon="5.091939000">
                <ele>11.000000</ele>
            </trkpt>
            <trkpt lat="43.339933000" lon="5.091870000">
                <ele>9.000000</ele>
                <time>2017-12-06T15:42:10Z</time>
            </trkpt>
            <trkpt lat="43.339845000" lon="5.091956000">
                <ele>9.000000</ele>
                <time>2017-12-06T15:42:27Z</time>
            </trkpt>
            <trkpt lat="43.339737000" lon="5.092063000">
                <ele>9.000000</ele>
                <time>2017-12-06T15:42:43Z</time>
            </trkpt>
            <trkpt lat="43.339659000" lon="5.092153000">
                <ele>9.000000</ele>
                <time>2017-12-06T15:42:56Z</time>
            </trkpt>
            <trkpt lat="43.339565000" lon="5.092277000">
                <ele>9.000000</ele>
                <time>2017-12-06T15:43:14Z</time>
            </trkpt>
            <trkpt lat="43.339482000" lon="5.092382000">
                <ele>9.000000</ele>
                <time>2017-12-06T15:43:26Z</time>
            </trkpt>
            <trkpt lat="43.339440000" lon="5.092550000">
                <ele>9.000000</ele>
                <time>2017-12-06T15:43:39Z</time>
            </trkpt>
            <trkpt lat="43.339384000" lon="5.092702000">
                <ele>10.000000</ele>
                <time>2017-12-06T15:43:50Z</time>
            </trkpt>
            <trkpt lat="43.339349000" lon="5.092837000">
                <ele>10.000000</ele>
                <time>2017-12-06T15:43:59Z</time>
            </trkpt>
            <trkpt lat="43.339294000" lon="5.092972000">
                <ele>10.000000</ele>
                <time>2017-12-06T15:44:08Z</time>
            </trkpt>
            <trkpt lat="43.339241000" lon="5.093104000">
                <ele>11.000000</ele>
                <time>2017-12-06T15:44:17Z</time>
            </trkpt>
            <trkpt lat="43.339152000" lon="5.093187000">
                <ele>10.000000</ele>
                <time>2017-12-06T15:44:26Z</time>
            </trkpt>
            <trkpt lat="43.339067000" lon="5.093274000">
                <ele>11.000000</ele>
                <time>2017-12-06T15:44:37Z</time>
            </trkpt>
            <trkpt lat="43.338957000" lon="5.093365000">
                <ele>11.000000</ele>
                <time>2017-12-06T15:44:53Z</time>
            </trkpt>
            <trkpt lat="43.338855000" lon="5.093405000">
                <ele>12.000000</ele>
                <time>2017-12-06T15:45:04Z</time>
            </trkpt>
            <trkpt lat="43.338786000" lon="5.093350000">
                <ele>11.000000</ele>
                <time>2017-12-06T15:45:17Z</time>
            </trkpt>
            <trkpt lat="43.338704000" lon="5.093280000">
                <ele>11.000000</ele>
                <time>2017-12-06T15:45:27Z</time>
            </trkpt>
            <trkpt lat="43.338630000" lon="5.093227000">
                <ele>10.000000</ele>
                <time>2017-12-06T15:46:50Z</time>
            </trkpt>
            <trkpt lat="43.338499000" lon="5.093355000">
                <ele>11.000000</ele>
                <time>2017-12-06T15:47:15Z</time>
            </trkpt>
            <trkpt lat="43.338381000" lon="5.093334000">
                <ele>11.000000</ele>
                <time>2017-12-06T15:47:28Z</time>
            </trkpt>
            <trkpt lat="43.338264000" lon="5.093274000">
                <ele>12.000000</ele>
                <time>2017-12-06T15:47:46Z</time>
            </trkpt>
            <trkpt lat="43.338161000" lon="5.093208000">
                <ele>13.000000</ele>
                <time>2017-12-06T15:48:00Z</time>
            </trkpt>
            <trkpt lat="43.338055000" lon="5.092965000">
                <ele>12.000000</ele>
                <time>2017-12-06T15:48:33Z</time>
            </trkpt>
            <trkpt lat="43.338034000" lon="5.092748000">
                <ele>11.000000</ele>
                <time>2017-12-06T15:48:58Z</time>
            </trkpt>
            <trkpt lat="43.338017000" lon="5.092589000">
                <ele>9.000000</ele>
                <time>2017-12-06T15:49:08Z</time>
            </trkpt>
            <trkpt lat="43.338000000" lon="5.092402000">
                <ele>8.000000</ele>
                <time>2017-12-06T15:49:17Z</time>
            </trkpt>
            <trkpt lat="43.337953000" lon="5.092243000">
                <ele>8.000000</ele>
                <time>2017-12-06T15:49:26Z</time>
            </trkpt>
            <trkpt lat="43.337897000" lon="5.092106000">
                <ele>8.000000</ele>
                <time>2017-12-06T15:49:35Z</time>
            </trkpt>
            <trkpt lat="43.337817000" lon="5.091998000">
                <ele>8.000000</ele>
                <time>2017-12-06T15:49:43Z</time>
            </trkpt>
            <trkpt lat="43.337715000" lon="5.091955000">
                <ele>9.000000</ele>
                <time>2017-12-06T15:49:52Z</time>
            </trkpt>
            <trkpt lat="43.337601000" lon="5.091922000">
                <ele>9.000000</ele>
                <time>2017-12-06T15:50:02Z</time>
            </trkpt>
            <trkpt lat="43.337478000" lon="5.091830000">
                <ele>8.000000</ele>
                <time>2017-12-06T15:50:23Z</time>
            </trkpt>
            <trkpt lat="43.337396000" lon="5.091742000">
                <ele>8.000000</ele>
                <time>2017-12-06T15:50:38Z</time>
            </trkpt>
            <trkpt lat="43.337320000" lon="5.091653000">
                <ele>8.000000</ele>
                <time>2017-12-06T15:50:46Z</time>
            </trkpt>
            <trkpt lat="43.337235000" lon="5.091590000">
                <ele>9.000000</ele>
                <time>2017-12-06T15:50:54Z</time>
            </trkpt>
            <trkpt lat="43.337132000" lon="5.091539000">
                <ele>10.000000</ele>
                <time>2017-12-06T15:51:03Z</time>
            </trkpt>
            <trkpt lat="43.337025000" lon="5.091488000">
                <ele>10.000000</ele>
                <time>2017-12-06T15:51:12Z</time>
            </trkpt>
            <trkpt lat="43.336935000" lon="5.091419000">
                <ele>10.000000</ele>
                <time>2017-12-06T15:51:20Z</time>
            </trkpt>
            <trkpt lat="43.336814000" lon="5.091355000">
                <ele>10.000000</ele>
                <time>2017-12-06T15:51:31Z</time>
            </trkpt>
            <trkpt lat="43.336710000" lon="5.091301000">
                <ele>10.000000</ele>
                <time>2017-12-06T15:51:40Z</time>
            </trkpt>
            <trkpt lat="43.336590000" lon="5.091257000">
                <ele>11.000000</ele>
                <time>2017-12-06T15:51:50Z</time>
            </trkpt>
            <trkpt lat="43.336477000" lon="5.091202000">
                <ele>12.000000</ele>
                <time>2017-12-06T15:52:02Z</time>
            </trkpt>
            <trkpt lat="43.336361000" lon="5.091143000">
                <ele>13.000000</ele>
                <time>2017-12-06T15:52:12Z</time>
            </trkpt>
            <trkpt lat="43.336254000" lon="5.091067000">
                <ele>13.000000</ele>
                <time>2017-12-06T15:52:21Z</time>
            </trkpt>
            <trkpt lat="43.336153000" lon="5.090988000">
                <ele>13.000000</ele>
                <time>2017-12-06T15:52:30Z</time>
            </trkpt>
            <trkpt lat="43.336062000" lon="5.090881000">
                <ele>11.000000</ele>
                <time>2017-12-06T15:52:39Z</time>
            </trkpt>
            <trkpt lat="43.335945000" lon="5.090779000">
                <ele>11.000000</ele>
                <time>2017-12-06T15:52:54Z</time>
            </trkpt>
            <trkpt lat="43.335872000" lon="5.090655000">
                <ele>11.000000</ele>
                <time>2017-12-06T15:53:05Z</time>
            </trkpt>
            <trkpt lat="43.335809000" lon="5.090529000">
                <ele>10.000000</ele>
                <time>2017-12-06T15:53:13Z</time>
            </trkpt>
            <trkpt lat="43.335722000" lon="5.090422000">
                <ele>11.000000</ele>
                <time>2017-12-06T15:53:26Z</time>
            </trkpt>
            <trkpt lat="43.335629000" lon="5.090340000">
                <ele>12.000000</ele>
                <time>2017-12-06T15:53:44Z</time>
            </trkpt>
            <trkpt lat="43.335524000" lon="5.090289000">
                <ele>13.000000</ele>
                <time>2017-12-06T15:53:52Z</time>
            </trkpt>
            <trkpt lat="43.335429000" lon="5.090226000">
                <ele>14.000000</ele>
                <time>2017-12-06T15:54:00Z</time>
            </trkpt>
            <trkpt lat="43.335338000" lon="5.090129000">
                <ele>15.000000</ele>
                <time>2017-12-06T15:54:09Z</time>
            </trkpt>
            <trkpt lat="43.335265000" lon="5.090023000">
                <ele>14.000000</ele>
                <time>2017-12-06T15:54:19Z</time>
            </trkpt>
            <trkpt lat="43.335210000" lon="5.089896000">
                <ele>14.000000</ele>
                <time>2017-12-06T15:54:29Z</time>
            </trkpt>
            <trkpt lat="43.335141000" lon="5.089781000">
                <ele>14.000000</ele>
                <time>2017-12-06T15:54:39Z</time>
            </trkpt>
            <trkpt lat="43.335064000" lon="5.089655000">
                <ele>13.000000</ele>
                <time>2017-12-06T15:55:09Z</time>
            </trkpt>
            <trkpt lat="43.334995000" lon="5.089534000">
                <ele>12.000000</ele>
                <time>2017-12-06T15:55:24Z</time>
            </trkpt>
            <trkpt lat="43.334933000" lon="5.089392000">
                <ele>11.000000</ele>
                <time>2017-12-06T15:55:39Z</time>
            </trkpt>
            <trkpt lat="43.334805000" lon="5.089171000">
                <ele>9.000000</ele>
                <time>2017-12-06T15:58:24Z</time>
            </trkpt>
            <trkpt lat="43.334740000" lon="5.089122000">
                <ele>9.000000</ele>
                <time>2017-12-06T15:58:37Z</time>
            </trkpt>
            <trkpt lat="43.334722000" lon="5.089046000">
                <ele>10.000000</ele>
                <time>2017-12-06T15:58:58Z</time>
            </trkpt>
            <trkpt lat="43.334840000" lon="5.089018000">
                <ele>9.000000</ele>
                <time>2017-12-06T15:59:09Z</time>
            </trkpt>
            <trkpt lat="43.334956000" lon="5.088979000">
                <ele>9.000000</ele>
                <time>2017-12-06T15:59:19Z</time>
            </trkpt>
            <trkpt lat="43.335073000" lon="5.088911000">
                <ele>10.000000</ele>
                <time>2017-12-06T15:59:28Z</time>
            </trkpt>
            <trkpt lat="43.335158000" lon="5.088821000">
                <ele>11.000000</ele>
                <time>2017-12-06T15:59:36Z</time>
            </trkpt>
            <trkpt lat="43.335198000" lon="5.088686000">
                <ele>13.000000</ele>
                <time>2017-12-06T15:59:45Z</time>
            </trkpt>
            <trkpt lat="43.335119000" lon="5.088523000">
                <ele>14.000000</ele>
                <time>2017-12-06T15:59:55Z</time>
            </trkpt>
            <trkpt lat="43.335000000" lon="5.088450000">
                <ele>13.000000</ele>
                <time>2017-12-06T16:00:03Z</time>
            </trkpt>
            <trkpt lat="43.334889000" lon="5.088422000">
                <ele>13.000000</ele>
                <time>2017-12-06T16:00:10Z</time>
            </trkpt>
            <trkpt lat="43.334788000" lon="5.088425000">
                <ele>12.000000</ele>
                <time>2017-12-06T16:00:18Z</time>
            </trkpt>
            <trkpt lat="43.334684000" lon="5.088425000">
                <ele>11.000000</ele>
                <time>2017-12-06T16:00:26Z</time>
            </trkpt>
            <trkpt lat="43.334588000" lon="5.088392000">
                <ele>11.000000</ele>
                <time>2017-12-06T16:00:34Z</time>
            </trkpt>
            <trkpt lat="43.334482000" lon="5.088346000">
                <ele>10.000000</ele>
                <time>2017-12-06T16:00:43Z</time>
            </trkpt>
            <trkpt lat="43.334386000" lon="5.088311000">
                <ele>9.000000</ele>
                <time>2017-12-06T16:00:51Z</time>
            </trkpt>
            <trkpt lat="43.334286000" lon="5.088269000">
                <ele>9.000000</ele>
                <time>2017-12-06T16:00:59Z</time>
            </trkpt>
            <trkpt lat="43.334171000" lon="5.088228000">
                <ele>9.000000</ele>
                <time>2017-12-06T16:01:09Z</time>
            </trkpt>
            <trkpt lat="43.334061000" lon="5.088188000">
                <ele>9.000000</ele>
                <time>2017-12-06T16:01:18Z</time>
            </trkpt>
            <trkpt lat="43.333954000" lon="5.088142000">
                <ele>9.000000</ele>
                <time>2017-12-06T16:01:26Z</time>
            </trkpt>
            <trkpt lat="43.333839000" lon="5.088082000">
                <ele>10.000000</ele>
                <time>2017-12-06T16:01:35Z</time>
            </trkpt>
            <trkpt lat="43.333733000" lon="5.088047000">
                <ele>10.000000</ele>
                <time>2017-12-06T16:01:45Z</time>
            </trkpt>
            <trkpt lat="43.333631000" lon="5.088014000">
                <ele>10.000000</ele>
                <time>2017-12-06T16:01:55Z</time>
            </trkpt>
            <trkpt lat="43.333537000" lon="5.087975000">
                <ele>10.000000</ele>
                <time>2017-12-06T16:02:04Z</time>
            </trkpt>
            <trkpt lat="43.333450000" lon="5.087934000">
                <ele>10.000000</ele>
                <time>2017-12-06T16:02:38Z</time>
            </trkpt>
            <trkpt lat="43.333355000" lon="5.087907000">
                <ele>9.000000</ele>
                <time>2017-12-06T16:02:48Z</time>
            </trkpt>
            <trkpt lat="43.333259000" lon="5.087857000">
                <ele>9.000000</ele>
                <time>2017-12-06T16:02:57Z</time>
            </trkpt>
            <trkpt lat="43.333163000" lon="5.087799000">
                <ele>9.000000</ele>
                <time>2017-12-06T16:03:08Z</time>
            </trkpt>
            <trkpt lat="43.333056000" lon="5.087763000">
                <ele>9.000000</ele>
                <time>2017-12-06T16:03:23Z</time>
            </trkpt>
            <trkpt lat="43.332966000" lon="5.087714000">
                <ele>8.000000</ele>
                <time>2017-12-06T16:03:33Z</time>
            </trkpt>
            <trkpt lat="43.332882000" lon="5.087664000">
                <ele>8.000000</ele>
                <time>2017-12-06T16:03:56Z</time>
            </trkpt>
            <trkpt lat="43.332791000" lon="5.087601000">
                <ele>8.000000</ele>
                <time>2017-12-06T16:04:12Z</time>
            </trkpt>
            <trkpt lat="43.332692000" lon="5.087512000">
                <ele>8.000000</ele>
                <time>2017-12-06T16:04:22Z</time>
            </trkpt>
            <trkpt lat="43.332609000" lon="5.087438000">
                <ele>8.000000</ele>
                <time>2017-12-06T16:04:31Z</time>
            </trkpt>
            <trkpt lat="43.332515000" lon="5.087378000">
                <ele>8.000000</ele>
                <time>2017-12-06T16:04:42Z</time>
            </trkpt>
            <trkpt lat="43.332427000" lon="5.087358000">
                <ele>8.000000</ele>
                <time>2017-12-06T16:04:50Z</time>
            </trkpt>
            <trkpt lat="43.332329000" lon="5.087377000">
                <ele>7.000000</ele>
                <time>2017-12-06T16:04:59Z</time>
            </trkpt>
            <trkpt lat="43.332239000" lon="5.087394000">
                <ele>6.000000</ele>
                <time>2017-12-06T16:05:07Z</time>
            </trkpt>
            <trkpt lat="43.332151000" lon="5.087418000">
                <ele>6.000000</ele>
                <time>2017-12-06T16:05:16Z</time>
            </trkpt>
            <trkpt lat="43.332053000" lon="5.087408000">
                <ele>5.000000</ele>
                <time>2017-12-06T16:05:26Z</time>
            </trkpt>
            <trkpt lat="43.331963000" lon="5.087449000">
                <ele>5.000000</ele>
                <time>2017-12-06T16:05:38Z</time>
            </trkpt>
            <trkpt lat="43.331874000" lon="5.087496000">
                <ele>4.000000</ele>
                <time>2017-12-06T16:06:02Z</time>
            </trkpt>
            <trkpt lat="43.331850000" lon="5.087441000">
                <ele>4.000000</ele>
                <time>2017-12-06T16:08:03Z</time>
            </trkpt>
            <trkpt lat="43.331842000" lon="5.087331000">
                <ele>4.000000</ele>
                <time>2017-12-06T16:09:48Z</time>
            </trkpt>
            <trkpt lat="43.331861000" lon="5.087232000">
                <ele>5.000000</ele>
                <time>2017-12-06T16:10:32Z</time>
            </trkpt>
            <trkpt lat="43.331799000" lon="5.087147000">
                <ele>5.000000</ele>
                <time>2017-12-06T16:10:46Z</time>
            </trkpt>
            <trkpt lat="43.331756000" lon="5.087055000">
                <ele>5.000000</ele>
                <time>2017-12-06T16:12:25Z</time>
            </trkpt>
            <trkpt lat="43.331733000" lon="5.086911000">
                <ele>5.000000</ele>
                <time>2017-12-06T16:12:38Z</time>
            </trkpt>
            <trkpt lat="43.331732000" lon="5.086759000">
                <ele>5.000000</ele>
                <time>2017-12-06T16:12:48Z</time>
            </trkpt>
            <trkpt lat="43.331712000" lon="5.086622000">
                <ele>6.000000</ele>
                <time>2017-12-06T16:12:59Z</time>
            </trkpt>
            <trkpt lat="43.331682000" lon="5.086505000">
                <ele>6.000000</ele>
                <time>2017-12-06T16:13:11Z</time>
            </trkpt>
            <trkpt lat="43.331623000" lon="5.086375000">
                <ele>6.000000</ele>
                <time>2017-12-06T16:13:24Z</time>
            </trkpt>
            <trkpt lat="43.331581000" lon="5.086281000">
                <ele>6.000000</ele>
                <time>2017-12-06T16:14:03Z</time>
            </trkpt>
            <trkpt lat="43.331588000" lon="5.086189000">
                <ele>7.000000</ele>
                <time>2017-12-06T16:14:34Z</time>
            </trkpt>
            <trkpt lat="43.331574000" lon="5.086043000">
                <ele>7.000000</ele>
                <time>2017-12-06T16:14:51Z</time>
            </trkpt>
            <trkpt lat="43.331570000" lon="5.085968000">
                <ele>8.000000</ele>
                <time>2017-12-06T16:15:55Z</time>
            </trkpt>
            <trkpt lat="43.331578000" lon="5.085813000">
                <ele>9.000000</ele>
                <time>2017-12-06T16:16:19Z</time>
            </trkpt>
            <trkpt lat="43.331550000" lon="5.085677000">
                <ele>9.000000</ele>
                <time>2017-12-06T16:16:37Z</time>
            </trkpt>
            <trkpt lat="43.331460000" lon="5.085604000">
                <ele>9.000000</ele>
                <time>2017-12-06T16:16:53Z</time>
            </trkpt>
            <trkpt lat="43.331362000" lon="5.085562000">
                <ele>8.000000</ele>
                <time>2017-12-06T16:17:02Z</time>
            </trkpt>
            <trkpt lat="43.331275000" lon="5.085502000">
                <ele>8.000000</ele>
                <time>2017-12-06T16:17:11Z</time>
            </trkpt>
            <trkpt lat="43.331201000" lon="5.085438000">
                <ele>8.000000</ele>
                <time>2017-12-06T16:17:19Z</time>
            </trkpt>
            <trkpt lat="43.331115000" lon="5.085336000">
                <ele>7.000000</ele>
                <time>2017-12-06T16:17:27Z</time>
            </trkpt>
            <trkpt lat="43.331035000" lon="5.085272000">
                <ele>7.000000</ele>
                <time>2017-12-06T16:17:35Z</time>
            </trkpt>
            <trkpt lat="43.330974000" lon="5.085166000">
                <ele>7.000000</ele>
                <time>2017-12-06T16:17:46Z</time>
            </trkpt>
            <trkpt lat="43.330901000" lon="5.085099000">
                <ele>6.000000</ele>
                <time>2017-12-06T16:17:59Z</time>
            </trkpt>
            <trkpt lat="43.330866000" lon="5.084983000">
                <ele>6.000000</ele>
                <time>2017-12-06T16:18:07Z</time>
            </trkpt>
            <trkpt lat="43.330812000" lon="5.084876000">
                <ele>6.000000</ele>
                <time>2017-12-06T16:18:16Z</time>
            </trkpt>
            <trkpt lat="43.330716000" lon="5.084823000">
                <ele>6.000000</ele>
                <time>2017-12-06T16:18:25Z</time>
            </trkpt>
            <trkpt lat="43.330651000" lon="5.084719000">
                <ele>6.000000</ele>
                <time>2017-12-06T16:18:34Z</time>
            </trkpt>
            <trkpt lat="43.330582000" lon="5.084615000">
                <ele>5.000000</ele>
                <time>2017-12-06T16:18:44Z</time>
            </trkpt>
            <trkpt lat="43.330507000" lon="5.084516000">
                <ele>5.000000</ele>
                <time>2017-12-06T16:18:53Z</time>
            </trkpt>
            <trkpt lat="43.330434000" lon="5.084428000">
                <ele>5.000000</ele>
                <time>2017-12-06T16:19:02Z</time>
            </trkpt>
            <trkpt lat="43.330375000" lon="5.084327000">
                <ele>5.000000</ele>
                <time>2017-12-06T16:19:11Z</time>
            </trkpt>
            <trkpt lat="43.330317000" lon="5.084215000">
                <ele>5.000000</ele>
                <time>2017-12-06T16:19:20Z</time>
            </trkpt>
            <trkpt lat="43.330268000" lon="5.084102000">
                <ele>5.000000</ele>
                <time>2017-12-06T16:19:28Z</time>
            </trkpt>
            <trkpt lat="43.330205000" lon="5.084009000">
                <ele>5.000000</ele>
                <time>2017-12-06T16:19:37Z</time>
            </trkpt>
            <trkpt lat="43.330133000" lon="5.083926000">
                <ele>5.000000</ele>
                <time>2017-12-06T16:19:46Z</time>
            </trkpt>
            <trkpt lat="43.330077000" lon="5.083830000">
                <ele>5.000000</ele>
                <time>2017-12-06T16:19:54Z</time>
            </trkpt>
            <trkpt lat="43.330013000" lon="5.083778000">
                <ele>5.000000</ele>
                <time>2017-12-06T16:20:18Z</time>
            </trkpt>
            <trkpt lat="43.329922000" lon="5.083678000">
                <ele>5.000000</ele>
                <time>2017-12-06T16:21:38Z</time>
            </trkpt>
            <trkpt lat="43.329851000" lon="5.083582000">
                <ele>5.000000</ele>
                <time>2017-12-06T16:21:47Z</time>
            </trkpt>
            <trkpt lat="43.329764000" lon="5.083504000">
                <ele>5.000000</ele>
                <time>2017-12-06T16:21:55Z</time>
            </trkpt>
            <trkpt lat="43.329692000" lon="5.083411000">
                <ele>5.000000</ele>
                <time>2017-12-06T16:22:03Z</time>
            </trkpt>
            <trkpt lat="43.329620000" lon="5.083328000">
                <ele>5.000000</ele>
                <time>2017-12-06T16:22:10Z</time>
            </trkpt>
            <trkpt lat="43.329390000" lon="5.082991000">
                <ele>5.000000</ele>
                <time>2017-12-06T16:22:18Z</time>
            </trkpt>
        </trkseg>
    </trk>
</gpx>
